createdAt,value
2023-04-23T00:00:38.894Z,26.37
2023-04-23T00:01:38.976Z,26.37
2023-04-23T00:02:38.962Z,26.37
2023-04-23T00:03:39.177Z,26.39
2023-04-23T00:04:39.171Z,26.33
2023-04-23T00:05:38.937Z,26.33
2023-04-23T00:06:38.927Z,26.31
2023-04-23T00:07:38.929Z,26.32
2023-04-23T00:08:38.947Z,26.32
2023-04-23T00:09:38.959Z,26.36
2023-04-23T00:10:38.972Z,26.43
2023-04-23T00:11:38.966Z,26.46
2023-04-23T00:12:38.966Z,26.52
2023-04-23T00:13:38.985Z,26.48
2023-04-23T00:14:39.183Z,26.52
2023-04-23T00:15:38.994Z,26.48
2023-04-23T00:16:39.117Z,26.51
2023-04-23T00:17:39.080Z,26.52
2023-04-23T00:18:39.030Z,26.52
2023-04-23T00:19:39.033Z,26.55
2023-04-23T00:20:39.049Z,26.54
2023-04-23T00:21:39.081Z,26.54
2023-04-23T00:22:39.104Z,26.57
2023-04-23T00:23:39.184Z,26.58
2023-04-23T00:24:39.345Z,26.56
2023-04-23T00:25:39.109Z,26.55
2023-04-23T00:26:39.107Z,26.55
2023-04-23T00:27:39.111Z,26.55
2023-04-23T00:28:39.124Z,26.54
2023-04-23T00:29:39.121Z,26.54
2023-04-23T00:30:39.148Z,26.55
2023-04-23T00:31:39.188Z,26.51
2023-04-23T00:32:39.216Z,26.53
2023-04-23T00:33:39.174Z,26.51
2023-04-23T00:34:39.515Z,26.53
2023-04-23T00:35:39.201Z,26.50
2023-04-23T00:36:39.211Z,26.51
2023-04-23T00:37:39.222Z,26.50
2023-04-23T00:38:39.237Z,26.47
2023-04-23T00:39:39.265Z,26.48
2023-04-23T00:40:39.264Z,26.49
2023-04-23T00:41:39.273Z,26.48
2023-04-23T00:42:39.312Z,26.49
2023-04-23T00:43:39.309Z,26.53
2023-04-23T00:44:39.430Z,26.54
2023-04-23T00:45:39.503Z,26.58
2023-04-23T00:46:39.336Z,26.59
2023-04-23T00:47:39.412Z,26.62
2023-04-23T00:48:39.356Z,26.65
2023-04-23T00:49:39.377Z,26.67
2023-04-23T00:50:39.374Z,26.69
2023-04-23T00:51:39.401Z,26.71
2023-04-23T00:52:39.438Z,26.74
2023-04-23T00:53:39.428Z,26.72
2023-04-23T00:54:39.554Z,26.72
2023-04-23T00:55:39.453Z,26.68
2023-04-23T00:56:39.531Z,26.71
2023-04-23T00:57:39.513Z,26.71
2023-04-23T00:58:39.527Z,26.67
2023-04-23T00:59:39.536Z,26.68
2023-04-23T01:00:39.547Z,26.68
2023-04-23T01:01:39.580Z,26.68
2023-04-23T01:02:39.771Z,26.69
2023-04-23T01:03:39.693Z,26.69
2023-04-23T01:04:39.675Z,26.69
2023-04-23T01:05:39.606Z,26.72
2023-04-23T01:06:39.630Z,26.71
2023-04-23T01:07:39.722Z,26.72
2023-04-23T01:08:39.660Z,26.72
2023-04-23T01:09:39.677Z,26.73
2023-04-23T01:10:39.684Z,26.73
2023-04-23T01:11:39.700Z,26.73
2023-04-23T01:12:39.737Z,26.73
2023-04-23T01:13:39.733Z,26.69
2023-04-23T01:14:39.878Z,26.69
2023-04-23T01:15:39.751Z,26.67
2023-04-23T01:16:39.811Z,26.68
2023-04-23T01:17:39.812Z,26.66
2023-04-23T01:18:39.818Z,26.64
2023-04-23T01:19:39.822Z,26.62
2023-04-23T01:20:39.842Z,26.60
2023-04-23T01:21:39.876Z,26.62
2023-04-23T01:22:39.902Z,26.60
2023-04-23T01:23:39.903Z,26.57
2023-04-23T01:24:40.126Z,26.57
2023-04-23T01:25:39.963Z,26.56
2023-04-23T01:26:39.986Z,26.54
2023-04-23T01:27:40.003Z,26.55
2023-04-23T01:28:40.052Z,26.59
2023-04-23T01:29:40.138Z,26.61
2023-04-23T01:30:40.116Z,26.70
2023-04-23T01:31:40.081Z,26.78
2023-04-23T01:32:40.156Z,26.86
2023-04-23T01:33:40.141Z,26.90
2023-04-23T01:34:40.341Z,26.96
2023-04-23T01:35:40.172Z,26.99
2023-04-23T01:36:40.237Z,27.02
2023-04-23T01:37:40.226Z,27.02
2023-04-23T01:38:40.247Z,27.03
2023-04-23T01:39:40.278Z,27.06
2023-04-23T01:40:40.292Z,27.07
2023-04-23T01:41:40.331Z,27.07
2023-04-23T01:42:40.358Z,27.07
2023-04-23T01:43:40.358Z,27.07
2023-04-23T01:44:40.469Z,27.08
2023-04-23T01:45:40.403Z,27.10
2023-04-23T01:46:40.476Z,27.10
2023-04-23T01:47:40.471Z,27.08
2023-04-23T01:48:40.482Z,27.09
2023-04-23T01:49:40.489Z,27.08
2023-04-23T01:50:40.495Z,27.09
2023-04-23T01:51:40.506Z,27.08
2023-04-23T01:52:40.649Z,27.07
2023-04-23T01:53:40.575Z,27.10
2023-04-23T01:54:40.929Z,27.06
2023-04-23T01:55:40.617Z,27.07
2023-04-23T01:56:40.631Z,27.06
2023-04-23T01:57:40.673Z,27.08
2023-04-23T01:58:40.667Z,27.08
2023-04-23T01:59:40.714Z,27.08
2023-04-23T02:00:40.770Z,27.10
2023-04-23T02:01:40.791Z,27.09
2023-04-23T02:02:40.967Z,27.11
2023-04-23T02:03:40.945Z,27.13
2023-04-23T02:04:41.176Z,27.14
2023-04-23T02:05:40.853Z,27.16
2023-04-23T02:06:40.854Z,27.13
2023-04-23T02:07:40.898Z,27.16
2023-04-23T02:08:40.924Z,27.18
2023-04-23T02:09:40.955Z,27.22
2023-04-23T02:10:40.949Z,27.24
2023-04-23T02:11:40.987Z,27.28
2023-04-23T02:12:41.000Z,27.26
2023-04-23T02:13:41.032Z,27.28
2023-04-23T02:14:41.410Z,27.28
2023-04-23T02:15:41.072Z,27.27
2023-04-23T02:16:41.095Z,27.28
2023-04-23T02:17:41.149Z,27.31
2023-04-23T02:18:41.132Z,27.31
2023-04-23T02:19:41.160Z,27.34
2023-04-23T02:20:41.164Z,27.35
2023-04-23T02:21:41.185Z,27.35
2023-04-23T02:22:41.225Z,27.35
2023-04-23T02:23:41.261Z,27.35
2023-04-23T02:24:41.455Z,27.36
2023-04-23T02:25:41.279Z,27.35
2023-04-23T02:26:41.345Z,27.34
2023-04-23T02:27:41.358Z,27.32
2023-04-23T02:28:41.374Z,27.31
2023-04-23T02:29:41.384Z,27.31
2023-04-23T02:30:41.401Z,27.32
2023-04-23T02:31:41.485Z,27.34
2023-04-23T02:32:41.476Z,27.32
2023-04-23T02:33:41.465Z,27.34
2023-04-23T02:34:41.833Z,27.36
2023-04-23T02:35:41.519Z,27.38
2023-04-23T02:36:41.646Z,27.41
2023-04-23T02:37:41.646Z,27.40
2023-04-23T02:38:41.591Z,27.45
2023-04-23T02:39:41.589Z,27.48
2023-04-23T02:40:41.618Z,27.45
2023-04-23T02:41:41.647Z,27.45
2023-04-23T02:42:43.834Z,27.45
2023-04-23T02:43:41.707Z,27.45
2023-04-23T02:44:41.968Z,27.42
2023-04-23T02:45:41.738Z,27.43
2023-04-23T02:46:41.774Z,27.38
2023-04-23T02:47:41.795Z,27.39
2023-04-23T02:48:41.838Z,27.38
2023-04-23T02:49:41.816Z,27.40
2023-04-23T02:50:41.829Z,27.37
2023-04-23T02:51:41.862Z,27.38
2023-04-23T02:52:41.898Z,27.38
2023-04-23T02:53:41.914Z,27.38
2023-04-23T02:54:42.277Z,27.38
2023-04-23T02:55:41.956Z,27.38
2023-04-23T02:56:41.985Z,27.37
2023-04-23T02:57:42.008Z,27.36
2023-04-23T02:58:42.289Z,27.35
2023-04-23T02:59:42.047Z,27.35
2023-04-23T03:00:42.175Z,27.38
2023-04-23T03:01:42.092Z,27.35
2023-04-23T03:02:42.229Z,27.35
2023-04-23T03:03:42.263Z,27.32
2023-04-23T03:04:42.293Z,27.33
2023-04-23T03:05:42.164Z,27.32
2023-04-23T03:06:42.166Z,27.32
2023-04-23T03:07:42.199Z,27.33
2023-04-23T03:08:42.249Z,27.31
2023-04-23T03:09:42.261Z,27.24
2023-04-23T03:10:42.270Z,27.24
2023-04-23T03:11:42.279Z,27.22
2023-04-23T03:12:42.304Z,27.23
2023-04-23T03:13:42.331Z,27.20
2023-04-23T03:14:42.682Z,27.21
2023-04-23T03:15:42.409Z,27.19
2023-04-23T03:16:42.447Z,27.17
2023-04-23T03:17:42.449Z,27.18
2023-04-23T03:18:42.470Z,27.18
2023-04-23T03:19:42.489Z,27.18
2023-04-23T03:20:42.613Z,27.20
2023-04-23T03:21:42.525Z,27.26
2023-04-23T03:22:42.574Z,27.29
2023-04-23T03:23:42.567Z,27.32
2023-04-23T03:24:42.760Z,27.38
2023-04-23T03:25:42.618Z,27.40
2023-04-23T03:26:42.632Z,27.39
2023-04-23T03:27:42.672Z,27.39
2023-04-23T03:28:42.689Z,27.39
2023-04-23T03:29:42.705Z,27.42
2023-04-23T03:30:42.753Z,27.44
2023-04-23T03:31:42.742Z,27.44
2023-04-23T03:32:42.755Z,27.47
2023-04-23T03:33:42.775Z,27.49
2023-04-23T03:34:43.021Z,27.49
2023-04-23T03:35:42.824Z,27.52
2023-04-23T03:36:42.851Z,27.52
2023-04-23T03:37:42.918Z,27.53
2023-04-23T03:38:42.908Z,27.54
2023-04-23T03:39:42.927Z,27.55
2023-04-23T03:40:42.936Z,27.54
2023-04-23T03:41:42.981Z,27.57
2023-04-23T03:42:43.000Z,27.59
2023-04-23T03:43:43.118Z,27.58
2023-04-23T03:44:43.197Z,27.59
2023-04-23T03:45:43.067Z,27.62
2023-04-23T03:46:43.081Z,27.62
2023-04-23T03:47:43.089Z,27.64
2023-04-23T03:48:43.078Z,27.65
2023-04-23T03:49:43.096Z,27.69
2023-04-23T03:50:43.092Z,27.70
2023-04-23T03:51:43.093Z,27.70
2023-04-23T03:52:43.105Z,27.73
2023-04-23T03:53:43.128Z,27.72
2023-04-23T03:54:43.335Z,27.73
2023-04-23T03:55:43.118Z,27.74
2023-04-23T03:56:43.133Z,27.72
2023-04-23T03:57:43.142Z,27.72
2023-04-23T03:58:43.157Z,27.75
2023-04-23T03:59:43.155Z,27.76
2023-04-23T04:00:43.159Z,27.76
2023-04-23T04:01:43.161Z,27.75
2023-04-23T04:02:43.267Z,27.77
2023-04-23T04:03:43.378Z,27.75
2023-04-23T04:04:43.473Z,27.78
2023-04-23T04:05:43.332Z,27.78
2023-04-23T04:06:43.190Z,27.76
2023-04-23T04:07:43.219Z,27.76
2023-04-23T04:08:43.208Z,27.76
2023-04-23T04:09:43.237Z,27.77
2023-04-23T04:10:43.216Z,27.75
2023-04-23T04:11:43.260Z,27.77
2023-04-23T04:12:43.243Z,27.80
2023-04-23T04:13:43.253Z,27.80
2023-04-23T04:14:43.581Z,27.85
2023-04-23T04:15:43.302Z,27.86
2023-04-23T04:16:43.303Z,27.91
2023-04-23T04:17:43.332Z,27.91
2023-04-23T04:18:43.321Z,27.93
2023-04-23T04:19:43.381Z,27.93
2023-04-23T04:20:43.393Z,27.94
2023-04-23T04:21:43.402Z,27.98
2023-04-23T04:22:43.439Z,28.02
2023-04-23T04:23:43.471Z,28.02
2023-04-23T04:24:43.744Z,28.03
2023-04-23T04:25:43.512Z,28.06
2023-04-23T04:26:43.538Z,28.06
2023-04-23T04:27:43.656Z,28.06
2023-04-23T04:28:43.609Z,28.05
2023-04-23T04:29:43.657Z,28.06
2023-04-23T04:30:43.648Z,28.08
2023-04-23T04:31:43.711Z,28.09
2023-04-23T04:32:43.715Z,28.10
2023-04-23T04:33:43.711Z,28.12
2023-04-23T04:34:43.945Z,28.12
2023-04-23T04:35:43.761Z,28.10
2023-04-23T04:36:43.793Z,28.12
2023-04-23T04:37:43.871Z,28.12
2023-04-23T04:38:43.846Z,28.14
2023-04-23T04:39:43.872Z,28.15
2023-04-23T04:40:43.887Z,28.15
2023-04-23T04:41:43.917Z,28.14
2023-04-23T04:42:43.924Z,28.13
2023-04-23T04:43:43.939Z,28.10
2023-04-23T04:44:44.041Z,28.13
2023-04-23T04:45:43.986Z,28.12
2023-04-23T04:46:44.105Z,28.11
2023-04-23T04:47:44.073Z,28.08
2023-04-23T04:48:44.074Z,28.08
2023-04-23T04:49:44.188Z,28.09
2023-04-23T04:50:44.122Z,28.09
2023-04-23T04:51:44.145Z,28.08
2023-04-23T04:52:44.167Z,28.05
2023-04-23T04:53:44.202Z,28.07
2023-04-23T04:54:44.392Z,28.05
2023-04-23T04:55:44.227Z,28.06
2023-04-23T04:56:44.272Z,28.06
2023-04-23T04:57:44.290Z,28.07
2023-04-23T04:58:44.312Z,28.08
2023-04-23T04:59:44.487Z,28.08
2023-04-23T05:00:44.522Z,28.05
2023-04-23T05:01:44.377Z,28.07
2023-04-23T05:02:44.467Z,28.09
2023-04-23T05:03:44.629Z,28.12
2023-04-23T05:04:44.637Z,28.16
2023-04-23T05:05:44.496Z,28.15
2023-04-23T05:06:44.489Z,28.20
2023-04-23T05:07:44.514Z,28.22
2023-04-23T05:08:44.560Z,28.24
2023-04-23T05:09:45.356Z,28.22
2023-04-23T05:10:44.598Z,28.22
2023-04-23T05:11:44.693Z,28.21
2023-04-23T05:12:44.630Z,28.22
2023-04-23T05:13:44.685Z,28.22
2023-04-23T05:14:44.668Z,28.24
2023-04-23T05:15:44.676Z,28.23
2023-04-23T05:16:44.744Z,28.23
2023-04-23T05:17:44.732Z,28.23
2023-04-23T05:18:44.749Z,28.25
2023-04-23T05:19:44.771Z,28.23
2023-04-23T05:20:44.786Z,28.22
2023-04-23T05:21:44.811Z,28.26
2023-04-23T05:22:44.813Z,28.24
2023-04-23T05:23:44.862Z,28.26
2023-04-23T05:24:44.873Z,28.27
2023-04-23T05:25:44.879Z,28.26
2023-04-23T05:26:44.906Z,28.27
2023-04-23T05:27:44.938Z,28.25
2023-04-23T05:28:44.950Z,28.26
2023-04-23T05:29:44.966Z,28.26
2023-04-23T05:30:45.001Z,28.25
2023-04-23T05:31:45.053Z,28.27
2023-04-23T05:32:45.080Z,28.29
2023-04-23T05:33:49.892Z,28.25
2023-04-23T05:34:46.044Z,28.28
2023-04-23T05:35:45.026Z,28.32
2023-04-23T05:36:45.040Z,28.34
2023-04-23T05:37:45.019Z,28.42
2023-04-23T05:38:45.067Z,28.43
2023-04-23T05:39:45.014Z,28.46
2023-04-23T05:40:45.003Z,28.51
2023-04-23T05:41:44.997Z,28.51
2023-04-23T05:42:44.969Z,28.54
2023-04-23T05:43:44.983Z,28.56
2023-04-23T05:44:44.994Z,28.55
2023-04-23T05:45:44.989Z,28.56
2023-04-23T05:46:44.940Z,28.56
2023-04-23T05:47:44.943Z,28.55
2023-04-23T05:48:44.949Z,28.57
2023-04-23T05:49:44.937Z,28.59
2023-04-23T05:50:44.928Z,28.62
2023-04-23T05:51:46.565Z,28.64
2023-04-23T05:52:44.936Z,28.63
2023-04-23T05:53:44.974Z,28.66
2023-04-23T05:54:44.983Z,28.69
2023-04-23T05:55:45.097Z,28.75
2023-04-23T05:56:45.014Z,28.74
2023-04-23T05:57:45.063Z,28.77
2023-04-23T05:58:45.061Z,28.78
2023-04-23T05:59:45.085Z,28.78
2023-04-23T06:00:45.104Z,28.83
2023-04-23T06:01:45.121Z,28.85
2023-04-23T06:02:45.184Z,28.91
2023-04-23T06:03:45.472Z,28.90
2023-04-23T06:04:46.286Z,28.97
2023-04-23T06:05:45.300Z,28.94
2023-04-23T06:06:45.205Z,28.97
2023-04-23T06:07:45.230Z,28.99
2023-04-23T06:08:45.261Z,29.04
2023-04-23T06:09:45.267Z,29.04
2023-04-23T06:10:45.274Z,29.06
2023-04-23T06:11:45.307Z,29.09
2023-04-23T06:12:45.305Z,29.12
2023-04-23T06:13:45.319Z,29.13
2023-04-23T06:14:45.343Z,29.16
2023-04-23T06:15:45.391Z,29.21
2023-04-23T06:16:45.383Z,29.19
2023-04-23T06:17:45.520Z,29.20
2023-04-23T06:18:45.410Z,29.23
2023-04-23T06:19:45.427Z,29.26
2023-04-23T06:20:45.461Z,29.26
2023-04-23T06:21:45.471Z,29.27
2023-04-23T06:22:45.486Z,29.31
2023-04-23T06:23:45.528Z,29.34
2023-04-23T06:24:45.532Z,29.34
2023-04-23T06:25:45.548Z,29.35
2023-04-23T06:26:45.592Z,29.37
2023-04-23T06:27:45.596Z,29.42
2023-04-23T06:28:45.616Z,29.42
2023-04-23T06:29:45.643Z,29.44
2023-04-23T06:30:45.654Z,29.44
2023-04-23T06:31:45.703Z,29.45
2023-04-23T06:32:45.688Z,29.47
2023-04-23T06:33:45.713Z,29.48
2023-04-23T06:34:59.663Z,29.48
2023-04-23T06:35:46.687Z,29.48
2023-04-23T06:36:45.705Z,29.47
2023-04-23T06:37:45.663Z,29.47
2023-04-23T06:38:45.670Z,29.44
2023-04-23T06:39:45.760Z,29.46
2023-04-23T06:40:45.652Z,29.46
2023-04-23T06:41:45.660Z,29.47
2023-04-23T06:42:45.651Z,29.53
2023-04-23T06:43:45.651Z,29.46
2023-04-23T06:44:45.650Z,29.51
2023-04-23T06:45:45.625Z,29.52
2023-04-23T06:46:45.664Z,29.52
2023-04-23T06:47:45.632Z,29.51
2023-04-23T06:48:45.619Z,29.52
2023-04-23T06:49:45.613Z,29.46
2023-04-23T06:50:45.600Z,29.47
2023-04-23T06:51:45.574Z,29.49
2023-04-23T06:52:45.571Z,29.49
2023-04-23T06:53:45.583Z,29.47
2023-04-23T06:54:45.558Z,29.53
2023-04-23T06:55:45.561Z,29.54
2023-04-23T06:56:45.547Z,29.53
2023-04-23T06:57:45.751Z,29.52
2023-04-23T06:58:45.553Z,29.53
2023-04-23T06:59:45.537Z,29.50
2023-04-23T07:00:45.540Z,29.49
2023-04-23T07:01:45.526Z,29.47
2023-04-23T07:02:45.576Z,29.41
2023-04-23T07:03:45.581Z,29.37
2023-04-23T07:04:46.110Z,29.38
2023-04-23T07:05:45.555Z,29.38
2023-04-23T07:06:45.586Z,29.33
2023-04-23T07:07:45.607Z,29.31
2023-04-23T07:08:45.617Z,29.25
2023-04-23T07:09:45.636Z,29.24
2023-04-23T07:10:45.630Z,29.24
2023-04-23T07:11:45.653Z,29.22
2023-04-23T07:12:45.666Z,29.24
2023-04-23T07:13:45.677Z,29.24
2023-04-23T07:14:45.669Z,29.20
2023-04-23T07:15:45.688Z,29.19
2023-04-23T07:16:45.694Z,29.20
2023-04-23T07:17:45.723Z,29.26
2023-04-23T07:18:45.695Z,29.27
2023-04-23T07:19:45.716Z,29.32
2023-04-23T07:20:45.747Z,29.30
2023-04-23T07:21:45.728Z,29.33
2023-04-23T07:22:45.746Z,29.38
2023-04-23T07:23:45.756Z,29.33
2023-04-23T07:24:45.926Z,29.31
2023-04-23T07:25:45.756Z,29.28
2023-04-23T07:26:45.774Z,29.22
2023-04-23T07:27:45.783Z,29.21
2023-04-23T07:28:45.795Z,29.17
2023-04-23T07:29:45.777Z,29.14
2023-04-23T07:30:45.782Z,29.14
2023-04-23T07:31:45.814Z,29.07
2023-04-23T07:32:45.853Z,29.03
2023-04-23T07:33:45.846Z,28.98
2023-04-23T07:34:45.792Z,28.97
2023-04-23T07:35:45.801Z,28.92
2023-04-23T07:36:45.773Z,28.95
2023-04-23T07:37:45.792Z,28.92
2023-04-23T07:38:45.775Z,28.89
2023-04-23T07:39:45.989Z,28.83
2023-04-23T07:40:45.771Z,28.80
2023-04-23T07:41:45.792Z,28.78
2023-04-23T07:42:45.827Z,28.73
2023-04-23T07:43:45.861Z,28.69
2023-04-23T07:44:45.859Z,28.71
2023-04-23T07:45:45.913Z,28.67
2023-04-23T07:46:45.909Z,28.68
2023-04-23T07:47:45.959Z,28.63
2023-04-23T07:48:46.001Z,28.57
2023-04-23T07:49:46.042Z,28.57
2023-04-23T07:50:46.085Z,28.55
2023-04-23T07:51:46.117Z,28.53
2023-04-23T07:52:46.183Z,28.57
2023-04-23T07:53:46.252Z,28.48
2023-04-23T07:54:46.288Z,28.44
2023-04-23T07:55:46.363Z,28.47
2023-04-23T07:56:46.417Z,28.49
2023-04-23T07:57:46.486Z,28.46
2023-04-23T07:58:46.558Z,28.43
2023-04-23T07:59:46.613Z,28.42
2023-04-23T08:00:46.659Z,28.47
2023-04-23T08:01:46.732Z,28.44
2023-04-23T08:02:46.948Z,28.45
2023-04-23T08:03:47.109Z,28.42
2023-04-23T08:04:47.078Z,28.39
2023-04-23T08:05:47.080Z,28.39
2023-04-23T08:06:47.028Z,28.34
2023-04-23T08:07:47.075Z,28.36
2023-04-23T08:08:47.145Z,28.35
2023-04-23T08:09:47.604Z,28.34
2023-04-23T08:10:47.272Z,28.35
2023-04-23T08:11:47.322Z,28.33
2023-04-23T08:12:47.364Z,28.31
2023-04-23T08:13:47.444Z,28.30
2023-04-23T08:14:47.477Z,28.30
2023-04-23T08:15:47.610Z,28.28
2023-04-23T08:16:47.593Z,28.28
2023-04-23T08:17:47.734Z,28.28
2023-04-23T08:18:58.115Z,28.26
2023-04-23T08:19:48.703Z,28.31
2023-04-23T08:20:47.704Z,28.29
2023-04-23T08:21:47.704Z,28.28
2023-04-23T08:22:47.684Z,28.29
2023-04-23T08:23:47.678Z,28.27
2023-04-23T08:24:47.684Z,28.30
2023-04-23T08:25:47.664Z,28.30
2023-04-23T08:26:47.668Z,28.27
2023-04-23T08:27:47.670Z,28.28
2023-04-23T08:28:47.655Z,28.33
2023-04-23T08:29:47.629Z,28.29
2023-04-23T08:30:47.688Z,28.32
2023-04-23T08:31:47.806Z,28.32
2023-04-23T08:32:47.839Z,28.29
2023-04-23T08:33:47.859Z,28.31
2023-04-23T08:34:47.886Z,28.34
2023-04-23T08:35:47.936Z,28.31
2023-04-23T08:36:48.003Z,28.33
2023-04-23T08:37:48.044Z,28.32
2023-04-23T08:38:48.073Z,28.32
2023-04-23T08:39:48.095Z,28.33
2023-04-23T08:40:48.152Z,28.36
2023-04-23T08:41:48.187Z,28.34
2023-04-23T08:42:48.243Z,28.31
2023-04-23T08:43:48.370Z,28.35
2023-04-23T08:44:48.334Z,28.32
2023-04-23T08:45:48.402Z,28.33
2023-04-23T08:46:48.513Z,28.35
2023-04-23T08:47:48.549Z,28.34
2023-04-23T08:48:48.550Z,28.34
2023-04-23T08:49:48.600Z,28.34
2023-04-23T08:50:48.674Z,28.35
2023-04-23T08:51:48.683Z,28.36
2023-04-23T08:52:48.731Z,28.30
2023-04-23T08:53:48.765Z,28.34
2023-04-23T08:54:48.836Z,28.34
2023-04-23T08:55:48.885Z,28.35
2023-04-23T08:56:48.929Z,28.30
2023-04-23T08:57:49.161Z,28.32
2023-04-23T08:58:49.038Z,28.36
2023-04-23T08:59:49.054Z,28.36
2023-04-23T09:00:49.171Z,28.35
2023-04-23T09:01:49.178Z,28.33
2023-04-23T09:02:49.577Z,28.32
2023-04-23T09:03:49.370Z,28.32
2023-04-23T09:04:51.340Z,28.33
2023-04-23T09:05:49.289Z,28.33
2023-04-23T09:06:49.285Z,28.32
2023-04-23T09:07:49.297Z,28.34
2023-04-23T09:08:49.284Z,28.29
2023-04-23T09:09:49.268Z,28.31
2023-04-23T09:10:49.254Z,28.18
2023-04-23T09:11:49.253Z,28.24
2023-04-23T09:12:49.256Z,28.22
2023-04-23T09:13:49.239Z,28.21
2023-04-23T09:14:49.257Z,28.23
2023-04-23T09:15:49.236Z,28.23
2023-04-23T09:16:49.266Z,28.26
2023-04-23T09:17:49.241Z,28.21
2023-04-23T09:18:49.237Z,28.20
2023-04-23T09:19:49.224Z,28.21
2023-04-23T09:20:49.207Z,28.19
2023-04-23T09:21:49.200Z,28.20
2023-04-23T09:22:49.209Z,28.22
2023-04-23T09:23:49.188Z,28.17
2023-04-23T09:24:49.170Z,28.19
2023-04-23T09:25:49.171Z,28.15
2023-04-23T09:26:49.172Z,28.20
2023-04-23T09:27:49.156Z,28.19
2023-04-23T09:28:50.155Z,28.18
2023-04-23T09:29:49.134Z,28.17
2023-04-23T09:30:49.125Z,28.14
2023-04-23T09:31:49.138Z,28.18
2023-04-23T09:32:49.134Z,28.16
2023-04-23T09:33:49.117Z,28.11
2023-04-23T09:34:49.107Z,28.12
2023-04-23T09:35:49.089Z,28.08
2023-04-23T09:36:49.108Z,28.08
2023-04-23T09:37:49.534Z,28.08
2023-04-23T09:38:49.080Z,28.13
2023-04-23T09:39:49.069Z,28.11
2023-04-23T09:40:49.068Z,28.13
2023-04-23T09:41:49.072Z,28.12
2023-04-23T09:42:49.057Z,28.11
2023-04-23T09:43:49.048Z,27.98
2023-04-23T09:44:49.040Z,28.03
2023-04-23T09:45:49.091Z,28.07
2023-04-23T09:46:49.037Z,28.04
2023-04-23T09:47:49.077Z,28.03
2023-04-23T09:48:49.011Z,28.02
2023-04-23T09:49:48.992Z,28.03
2023-04-23T09:50:48.989Z,28.04
2023-04-23T09:51:48.987Z,28.03
2023-04-23T09:52:48.975Z,27.95
2023-04-23T09:53:49.034Z,27.95
2023-04-23T09:54:49.076Z,27.99
2023-04-23T09:55:49.164Z,28.01
2023-04-23T09:56:49.149Z,28.00
2023-04-23T09:57:49.202Z,28.00
2023-04-23T09:58:49.232Z,27.98
2023-04-23T09:59:54.849Z,28.02
2023-04-23T10:00:50.272Z,27.94
2023-04-23T10:01:49.365Z,27.99
2023-04-23T10:02:49.504Z,28.01
2023-04-23T10:03:49.484Z,27.99
2023-04-23T10:04:49.445Z,27.99
2023-04-23T10:06:00.982Z,27.97
2023-04-23T10:07:02.346Z,27.95
2023-04-23T10:07:50.219Z,27.94
2023-04-23T10:08:49.230Z,27.96
2023-04-23T10:09:49.241Z,27.98
2023-04-23T10:11:49.214Z,27.97
2023-04-23T10:12:54.432Z,27.95
2023-04-23T10:13:50.193Z,27.95
2023-04-23T10:14:49.264Z,27.96
2023-04-23T10:15:49.181Z,27.94
2023-04-23T10:16:49.492Z,27.84
2023-04-23T10:17:49.160Z,27.92
2023-04-23T10:18:49.155Z,27.90
2023-04-23T10:19:49.130Z,27.93
2023-04-23T10:20:49.127Z,27.95
2023-04-23T10:21:56.182Z,27.97
2023-04-23T10:22:50.137Z,27.97
2023-04-23T10:23:49.100Z,27.97
2023-04-23T10:24:49.628Z,27.94
2023-04-23T10:25:49.103Z,27.90
2023-04-23T10:26:49.095Z,27.93
2023-04-23T10:27:53.151Z,27.96
2023-04-23T10:28:50.082Z,27.77
2023-04-23T10:29:49.074Z,27.86
2023-04-23T10:30:49.068Z,27.93
2023-04-23T10:31:49.043Z,27.91
2023-04-23T10:32:49.176Z,27.93
2023-04-23T10:33:58.457Z,27.96
2023-04-23T10:34:50.024Z,27.89
2023-04-23T10:35:49.014Z,27.92
2023-04-23T10:36:49.024Z,27.88
2023-04-23T10:37:49.040Z,27.91
2023-04-23T10:38:57.898Z,27.91
2023-04-23T10:39:50.168Z,27.93
2023-04-23T10:40:48.990Z,27.90
2023-04-23T10:41:48.991Z,27.83
2023-04-23T10:42:48.966Z,27.91
2023-04-23T10:43:48.996Z,27.91
2023-04-23T10:44:57.868Z,27.85
2023-04-23T10:45:49.953Z,27.88
2023-04-23T10:46:48.961Z,27.81
2023-04-23T10:47:49.143Z,27.84
2023-04-23T10:48:48.933Z,27.89
2023-04-23T10:49:48.936Z,27.84
2023-04-23T10:51:06.952Z,27.80
2023-04-23T10:52:48.911Z,27.80
2023-04-23T10:53:48.903Z,27.82
2023-04-23T10:54:48.881Z,27.86
2023-04-23T10:55:48.874Z,27.74
2023-04-23T10:56:48.892Z,27.79
2023-04-23T10:57:48.885Z,27.72
2023-04-23T10:58:48.875Z,27.73
2023-04-23T10:59:48.861Z,27.77
2023-04-23T11:00:48.856Z,27.77
2023-04-23T11:01:48.893Z,27.62
2023-04-23T11:02:48.992Z,27.68
2023-04-23T11:03:49.009Z,27.71
2023-04-23T11:04:48.944Z,27.80
2023-04-23T11:05:48.817Z,27.68
2023-04-23T11:06:48.807Z,27.71
2023-04-23T11:07:48.829Z,27.71
2023-04-23T11:08:49.531Z,27.61
2023-04-23T11:09:48.788Z,27.67
2023-04-23T11:10:48.788Z,27.63
2023-04-23T11:11:48.772Z,27.65
2023-04-23T11:12:48.759Z,27.62
2023-04-23T11:13:48.748Z,27.55
2023-04-23T11:14:48.758Z,27.60
2023-04-23T11:15:48.744Z,27.69
2023-04-23T11:17:48.937Z,27.65
2023-04-23T11:18:48.869Z,27.64
2023-04-23T11:19:48.922Z,27.64
2023-04-23T11:20:48.970Z,27.62
2023-04-23T11:21:49.011Z,27.58
2023-04-23T11:22:49.057Z,27.69
2023-04-23T11:23:49.114Z,27.59
2023-04-23T11:24:50.982Z,27.60
2023-04-23T11:25:49.179Z,27.59
2023-04-23T11:26:49.207Z,27.62
2023-04-23T11:27:49.264Z,27.55
2023-04-23T11:28:49.298Z,27.57
2023-04-23T11:29:49.327Z,27.59
2023-04-23T11:30:49.381Z,27.57
2023-04-23T11:32:01.390Z,27.55
2023-04-23T11:32:50.560Z,27.59
2023-04-23T11:33:49.423Z,27.58
2023-04-23T11:34:49.411Z,27.54
2023-04-23T11:35:49.380Z,27.63
2023-04-23T11:36:49.393Z,27.61
2023-04-23T11:37:49.426Z,27.58
2023-04-23T11:38:49.366Z,27.54
2023-04-23T11:39:49.387Z,27.59
2023-04-23T11:40:49.346Z,27.59
2023-04-23T11:41:49.368Z,27.59
2023-04-23T11:42:49.350Z,27.58
2023-04-23T11:43:49.323Z,27.60
2023-04-23T11:44:49.368Z,27.60
2023-04-23T11:45:49.445Z,27.57
2023-04-23T11:46:49.617Z,27.60
2023-04-23T11:47:49.554Z,27.62
2023-04-23T11:48:49.597Z,27.58
2023-04-23T11:49:49.590Z,27.63
2023-04-23T11:50:49.633Z,27.58
2023-04-23T11:51:49.695Z,27.58
2023-04-23T11:52:49.744Z,27.56
2023-04-23T11:53:49.798Z,27.55
2023-04-23T11:54:49.854Z,27.55
2023-04-23T11:55:49.884Z,27.56
2023-04-23T11:56:49.951Z,27.58
2023-04-23T11:57:50.005Z,27.56
2023-04-23T11:58:50.046Z,27.54
2023-04-23T11:59:50.083Z,27.54
2023-04-23T12:00:50.131Z,27.50
2023-04-23T12:01:50.174Z,27.48
2023-04-23T12:02:50.307Z,27.51
2023-04-23T12:03:50.426Z,27.46
2023-04-23T12:04:50.361Z,27.43
2023-04-23T12:05:50.357Z,27.49
2023-04-23T12:06:50.412Z,27.49
2023-04-23T12:07:50.453Z,27.44
2023-04-23T12:08:50.521Z,27.46
2023-04-23T12:09:50.574Z,27.47
2023-04-23T12:10:50.638Z,27.44
2023-04-23T12:11:50.656Z,27.37
2023-04-23T12:12:50.734Z,27.36
2023-04-23T12:13:50.773Z,27.34
2023-04-23T12:14:50.844Z,27.32
2023-04-23T12:15:50.923Z,27.30
2023-04-23T12:16:50.941Z,27.31
2023-04-23T12:17:51.012Z,27.31
2023-04-23T12:18:51.017Z,27.30
2023-04-23T12:19:51.077Z,27.32
2023-04-23T12:20:51.141Z,27.32
2023-04-23T12:21:51.171Z,27.27
2023-04-23T12:22:51.225Z,27.23
2023-04-23T12:23:51.254Z,27.24
2023-04-23T12:24:51.352Z,27.19
2023-04-23T12:25:51.354Z,27.19
2023-04-23T12:26:51.464Z,27.25
2023-04-23T12:27:51.512Z,27.18
2023-04-23T12:28:51.512Z,27.09
2023-04-23T12:29:51.626Z,27.12
2023-04-23T12:30:51.603Z,27.08
2023-04-23T12:31:51.697Z,27.07
2023-04-23T12:32:51.798Z,27.04
2023-04-23T12:33:51.737Z,27.03
2023-04-23T12:34:51.799Z,26.95
2023-04-23T12:35:51.852Z,26.92
2023-04-23T12:36:51.906Z,26.88
2023-04-23T12:37:51.946Z,26.89
2023-04-23T12:38:52.006Z,26.78
2023-04-23T12:39:52.051Z,26.87
2023-04-23T12:40:52.077Z,26.78
2023-04-23T12:41:52.125Z,26.75
2023-04-23T12:42:52.177Z,26.75
2023-04-23T12:43:52.253Z,26.76
2023-04-23T12:44:52.322Z,26.65
2023-04-23T12:45:52.336Z,26.68
2023-04-23T12:46:53.215Z,26.62
2023-04-23T12:47:52.469Z,26.60
2023-04-23T12:48:52.498Z,26.61
2023-04-23T12:49:52.542Z,26.66
2023-04-23T12:50:52.619Z,26.53
2023-04-23T12:51:52.723Z,26.48
2023-04-23T12:52:52.687Z,26.50
2023-04-23T12:53:52.738Z,26.49
2023-04-23T12:54:52.841Z,26.49
2023-04-23T12:55:52.859Z,26.50